createdAt,value
2017-10-25T00:00:32.967Z,15.63
2017-10-25T00:03:00.505Z,15.13
2017-10-25T00:05:28.039Z,16.00
2017-10-25T00:07:55.528Z,16.33
2017-10-25T00:10:23.143Z,15.20
2017-10-25T00:12:50.701Z,15.53
2017-10-25T00:15:18.261Z,15.80
2017-10-25T00:17:45.925Z,17.03
2017-10-25T00:20:13.420Z,17.07
2017-10-25T00:22:40.908Z,16.40
2017-10-25T00:25:09.314Z,17.30
2017-10-25T00:27:36.806Z,18.40
2017-10-25T00:30:04.302Z,18.73
2017-10-25T00:32:32.396Z,20.13
2017-10-25T00:34:59.890Z,19.33
2017-10-25T00:37:27.390Z,20.07
2017-10-25T00:39:55.293Z,17.37
2017-10-25T00:42:22.849Z,17.20
2017-10-25T00:44:50.430Z,17.23
2017-10-25T00:47:20.982Z,16.77
2017-10-25T00:49:48.502Z,17.10
2017-10-25T00:52:16.263Z,16.80
2017-10-25T00:54:43.755Z,17.87
2017-10-25T00:57:11.248Z,16.50
2017-10-25T00:59:38.837Z,15.80
2017-10-25T01:02:06.328Z,17.57
2017-10-25T01:04:33.829Z,17.90
2017-10-25T01:07:02.224Z,17.00
2017-10-25T01:09:29.718Z,18.00
2017-10-25T01:11:57.251Z,17.50
2017-10-25T01:14:24.771Z,17.90
2017-10-25T01:16:52.263Z,19.50
2017-10-25T01:19:19.824Z,20.50
2017-10-25T01:21:48.105Z,19.10
2017-10-25T01:24:15.591Z,20.77
2017-10-25T01:26:43.075Z,20.33
2017-10-25T01:29:11.668Z,19.57
2017-10-25T01:31:40.078Z,21.67
2017-10-25T01:34:07.571Z,22.07
2017-10-25T01:36:35.862Z,22.43
2017-10-25T01:39:03.355Z,23.37
2017-10-25T01:41:30.927Z,20.77
2017-10-25T01:43:59.299Z,23.50
2017-10-25T01:46:26.863Z,21.17
2017-10-25T01:48:54.445Z,20.83
2017-10-25T01:51:23.332Z,22.73
2017-10-25T01:53:50.835Z,21.93
2017-10-25T01:56:18.351Z,23.60
2017-10-25T01:58:45.851Z,21.77
2017-10-25T02:01:14.972Z,21.23
2017-10-25T02:03:42.459Z,22.60
2017-10-25T02:06:09.957Z,22.30
2017-10-25T02:08:38.376Z,25.83
2017-10-25T02:11:05.874Z,22.30
2017-10-25T02:13:33.373Z,22.70
2017-10-25T02:16:01.059Z,21.30
2017-10-25T02:18:28.551Z,22.20
2017-10-25T02:20:56.057Z,24.63
2017-10-25T02:23:23.736Z,21.77
2017-10-25T02:25:51.299Z,22.33
2017-10-25T02:28:18.801Z,22.50
2017-10-25T02:30:46.322Z,21.07
2017-10-25T02:33:14.280Z,21.30
2017-10-25T02:35:41.775Z,20.77
2017-10-25T02:38:09.270Z,22.40
2017-10-25T02:40:36.784Z,20.33
2017-10-25T02:43:04.304Z,21.37
2017-10-25T02:45:31.804Z,21.50
2017-10-25T02:48:00.844Z,23.47
2017-10-25T02:50:28.335Z,22.27
2017-10-25T02:52:55.823Z,20.90
2017-10-25T02:55:23.353Z,22.13
2017-10-25T02:57:50.897Z,21.43
2017-10-25T03:00:18.399Z,22.47
2017-10-25T03:02:46.740Z,21.43
2017-10-25T03:05:14.227Z,20.80
2017-10-25T03:07:41.723Z,20.80
2017-10-25T03:10:10.780Z,20.60
2017-10-25T03:12:38.275Z,21.17
2017-10-25T03:15:05.855Z,22.00
2017-10-25T03:17:33.411Z,20.20
2017-10-25T03:20:00.980Z,20.17
2017-10-25T03:22:28.476Z,20.33
2017-10-25T03:24:55.996Z,21.70
2017-10-25T03:27:23.508Z,21.70
2017-10-25T03:29:51.827Z,22.30
2017-10-25T03:32:19.333Z,21.50
2017-10-25T03:34:46.824Z,22.20
2017-10-25T03:37:14.345Z,20.90
2017-10-25T03:39:41.864Z,20.80
2017-10-25T03:42:09.360Z,21.13
2017-10-25T03:44:36.876Z,21.23
2017-10-25T03:47:05.252Z,20.90
2017-10-25T03:49:33.486Z,20.77
2017-10-25T03:52:00.980Z,25.10
2017-10-25T03:54:29.373Z,23.20
2017-10-25T03:56:56.923Z,20.60
2017-10-25T03:59:24.420Z,22.10
2017-10-25T04:01:51.937Z,21.87
2017-10-25T04:04:19.431Z,21.80
2017-10-25T04:06:46.948Z,22.97
2017-10-25T04:09:15.540Z,21.00
2017-10-25T04:11:43.101Z,21.10
2017-10-25T04:14:10.672Z,24.47
2017-10-25T04:16:38.195Z,22.27
2017-10-25T04:19:05.791Z,22.73
2017-10-25T04:21:33.336Z,23.93
2017-10-25T04:24:00.870Z,23.70
2017-10-25T04:26:28.375Z,22.57
2017-10-25T04:28:55.873Z,23.27
2017-10-25T04:31:24.290Z,22.60
2017-10-25T04:33:51.851Z,21.53
2017-10-25T04:36:19.415Z,22.60
2017-10-25T04:38:46.932Z,22.73
2017-10-25T04:41:14.423Z,22.97
2017-10-25T04:43:41.991Z,21.03
2017-10-25T04:46:10.204Z,22.00
2017-10-25T04:48:37.694Z,22.57
2017-10-25T04:51:06.002Z,23.43
2017-10-25T04:53:33.559Z,22.97
2017-10-25T04:56:01.058Z,22.27
2017-10-25T04:58:30.054Z,22.60
2017-10-25T05:00:57.556Z,24.40
2017-10-25T05:03:25.127Z,23.13
2017-10-25T05:05:52.704Z,25.70
2017-10-25T05:08:20.248Z,22.33
2017-10-25T05:10:47.740Z,21.30
2017-10-25T05:13:15.729Z,26.70
2017-10-25T05:15:43.220Z,27.53
2017-10-25T05:18:10.716Z,23.87
2017-10-25T05:20:38.329Z,25.53
2017-10-25T05:23:05.925Z,23.10
2017-10-25T05:25:33.415Z,30.17
2017-10-25T05:28:01.854Z,22.57
2017-10-25T05:30:29.424Z,25.83
2017-10-25T05:32:56.968Z,20.83
2017-10-25T05:35:24.633Z,23.20
2017-10-25T05:37:52.127Z,23.23
2017-10-25T05:40:19.628Z,22.60
2017-10-25T05:42:47.155Z,24.07
2017-10-25T05:45:15.255Z,25.93
2017-10-25T05:47:42.829Z,21.80
2017-10-25T05:50:10.334Z,21.03
2017-10-25T05:52:38.048Z,22.77
2017-10-25T05:55:05.548Z,22.40
2017-10-25T05:57:33.045Z,23.50
2017-10-25T06:00:01.445Z,22.20
2017-10-25T06:02:28.940Z,22.30
2017-10-25T06:04:56.435Z,22.57
2017-10-25T06:07:24.847Z,23.90
2017-10-25T06:09:52.341Z,25.60
2017-10-25T06:12:19.833Z,21.37
2017-10-25T06:14:47.367Z,22.33
2017-10-25T06:17:14.862Z,22.57
2017-10-25T06:19:42.363Z,22.90
2017-10-25T06:22:10.707Z,21.30
2017-10-25T06:24:38.199Z,22.33
2017-10-25T06:27:05.688Z,22.23
2017-10-25T06:29:33.210Z,21.23
2017-10-25T06:32:00.746Z,20.57
2017-10-25T06:37:02.215Z,20.40
2017-10-25T06:39:29.755Z,21.70
2017-10-25T06:41:57.250Z,21.13
2017-10-25T06:44:24.761Z,22.60
2017-10-25T06:46:52.444Z,23.10
2017-10-25T06:49:19.943Z,25.50
2017-10-25T06:51:47.453Z,34.63
2017-10-25T06:54:14.980Z,20.13
2017-10-25T06:56:42.588Z,20.17
2017-10-25T06:59:10.079Z,20.17
2017-10-25T07:01:37.602Z,20.33
2017-10-25T07:04:05.268Z,20.83
2017-10-25T07:06:32.827Z,20.10
2017-10-25T07:09:00.381Z,22.10
2017-10-25T07:11:27.946Z,21.97
2017-10-25T07:13:55.470Z,19.00
2017-10-25T07:16:22.960Z,17.93
2017-10-25T07:18:51.438Z,17.53
2017-10-25T07:21:18.935Z,18.03
2017-10-25T07:23:46.454Z,19.03
2017-10-25T07:26:14.016Z,19.07
2017-10-25T07:28:41.515Z,18.93
2017-10-25T07:31:09.000Z,20.67
2017-10-25T07:33:37.308Z,21.00
2017-10-25T07:36:04.801Z,17.67
2017-10-25T07:38:32.296Z,19.07
2017-10-25T07:40:59.829Z,17.17
2017-10-25T07:43:28.155Z,19.10
2017-10-25T07:45:55.716Z,15.73
2017-10-25T07:48:23.211Z,15.80
2017-10-25T07:50:50.743Z,16.40
2017-10-25T07:53:18.240Z,16.17
2017-10-25T07:55:45.756Z,17.83
2017-10-25T07:58:13.307Z,15.10
2017-10-25T08:00:40.809Z,15.20
2017-10-25T08:03:08.295Z,15.63
2017-10-25T08:05:35.851Z,13.90
2017-10-25T08:08:03.447Z,15.00
2017-10-25T08:10:30.961Z,14.37
2017-10-25T08:12:58.664Z,16.00
2017-10-25T08:15:26.216Z,14.17
2017-10-25T08:17:53.714Z,14.17
2017-10-25T08:20:21.251Z,14.17
2017-10-25T08:22:48.796Z,14.70
2017-10-25T08:25:16.282Z,14.20
2017-10-25T08:27:43.815Z,14.63
2017-10-25T08:30:11.375Z,14.77
2017-10-25T08:32:38.880Z,14.60
2017-10-25T08:35:06.488Z,15.03
2017-10-25T08:37:34.043Z,19.83
2017-10-25T08:40:01.550Z,14.13
2017-10-25T08:42:29.497Z,14.20
2017-10-25T08:44:56.981Z,15.93
2017-10-25T08:47:24.515Z,13.73
2017-10-25T08:49:52.069Z,13.50
2017-10-25T08:52:19.615Z,14.10
2017-10-25T08:54:47.103Z,16.37
2017-10-25T08:57:14.668Z,12.43
2017-10-25T08:59:42.291Z,12.53
2017-10-25T09:02:09.952Z,11.63
2017-10-25T09:04:37.451Z,11.33
2017-10-25T09:07:04.948Z,12.53
2017-10-25T09:09:32.476Z,11.77
2017-10-25T09:11:59.970Z,13.67
2017-10-25T09:14:27.463Z,18.10
2017-10-25T09:16:54.989Z,17.60
2017-10-25T09:19:22.493Z,14.10
2017-10-25T09:21:49.987Z,12.27
2017-10-25T09:24:17.511Z,12.77
2017-10-25T09:26:45.057Z,14.57
2017-10-25T09:29:12.559Z,14.23
2017-10-25T09:31:40.153Z,11.17
2017-10-25T09:34:07.691Z,13.30
2017-10-25T09:36:35.185Z,20.70
2017-10-25T09:39:02.672Z,12.13
2017-10-25T09:41:30.385Z,10.80
2017-10-25T09:43:57.960Z,13.47
2017-10-25T09:46:25.448Z,10.43
2017-10-25T09:48:52.984Z,10.50
2017-10-25T09:51:20.518Z,12.70
2017-10-25T09:53:48.075Z,10.53
2017-10-25T09:56:15.588Z,10.67
2017-10-25T09:58:43.119Z,9.33
2017-10-25T10:01:10.870Z,10.23
2017-10-25T10:03:38.359Z,9.97
2017-10-25T10:06:05.887Z,8.90
2017-10-25T10:08:33.423Z,9.40
2017-10-25T10:11:00.944Z,9.40
2017-10-25T10:13:28.436Z,9.77
2017-10-25T10:15:55.924Z,8.20
2017-10-25T10:18:23.460Z,9.10
2017-10-25T10:20:51.023Z,8.30
2017-10-25T10:23:18.507Z,8.90
2017-10-25T10:25:46.024Z,9.53
2017-10-25T10:28:13.512Z,8.00
2017-10-25T10:30:41.084Z,9.60
2017-10-25T10:33:08.572Z,8.77
2017-10-25T10:35:36.097Z,8.77
2017-10-25T10:38:03.653Z,8.77
2017-10-25T10:40:31.147Z,8.07
2017-10-25T10:42:58.636Z,8.63
2017-10-25T10:45:26.169Z,7.90
2017-10-25T10:47:53.659Z,7.97
2017-10-25T10:50:21.157Z,9.90
2017-10-25T10:52:48.689Z,7.57
2017-10-25T10:55:16.243Z,8.27
2017-10-25T10:57:43.729Z,7.20
2017-10-25T11:00:11.273Z,5.87
2017-10-25T11:02:38.778Z,5.70
2017-10-25T11:05:06.268Z,6.10
2017-10-25T11:07:33.776Z,5.83
2017-10-25T11:10:01.260Z,6.67
2017-10-25T11:12:28.872Z,5.20
2017-10-25T11:14:56.411Z,7.10
2017-10-25T11:17:23.901Z,6.20
2017-10-25T11:19:51.522Z,6.70
2017-10-25T11:22:19.008Z,6.27
2017-10-25T11:24:46.492Z,5.30
2017-10-25T11:27:14.013Z,6.70
2017-10-25T11:29:41.506Z,6.70
2017-10-25T11:32:08.995Z,4.67
2017-10-25T11:34:36.514Z,5.87
2017-10-25T11:37:03.997Z,5.90
2017-10-25T11:39:31.481Z,6.30
2017-10-25T11:41:59.016Z,4.67
2017-10-25T11:44:26.496Z,5.57
2017-10-25T11:46:54.068Z,4.47
2017-10-25T11:49:21.586Z,4.83
2017-10-25T11:51:49.071Z,3.80
2017-10-25T11:54:16.643Z,5.03
2017-10-25T11:56:44.208Z,5.10
2017-10-25T11:59:11.698Z,5.37
2017-10-25T12:01:39.239Z,4.80
2017-10-25T12:04:06.720Z,4.07
2017-10-25T12:06:34.205Z,4.80
2017-10-25T12:09:01.707Z,4.47
2017-10-25T12:11:29.274Z,4.37
2017-10-25T12:13:56.758Z,4.20
2017-10-25T12:16:24.261Z,4.17
2017-10-25T12:18:51.785Z,4.63
2017-10-25T12:21:19.282Z,7.50
2017-10-25T12:23:46.774Z,7.87
2017-10-25T12:26:14.286Z,5.47
2017-10-25T12:28:41.855Z,4.30
2017-10-25T12:31:09.335Z,4.17
2017-10-25T12:33:36.819Z,4.10
2017-10-25T12:36:04.369Z,4.70
2017-10-25T12:38:31.853Z,4.63
2017-10-25T12:40:59.339Z,4.13
2017-10-25T12:43:26.900Z,4.60
2017-10-25T12:45:55.279Z,5.23
2017-10-25T12:48:22.862Z,4.63
2017-10-25T12:50:50.383Z,3.77
2017-10-25T12:53:17.967Z,4.10
2017-10-25T12:55:45.503Z,3.63
2017-10-25T12:58:13.079Z,3.80
2017-10-25T13:00:40.563Z,3.57
2017-10-25T13:03:08.088Z,3.80
2017-10-25T13:05:35.610Z,3.97
2017-10-25T13:08:03.122Z,4.30
2017-10-25T13:10:47.731Z,3.60
2017-10-25T13:13:35.990Z,3.70
2017-10-25T13:16:05.008Z,5.63
2017-10-25T13:18:33.220Z,4.20
2017-10-25T13:21:00.708Z,4.67
2017-10-25T13:23:28.328Z,5.27
2017-10-25T13:25:55.819Z,4.10
2017-10-25T13:28:23.312Z,8.60
2017-10-25T13:30:50.987Z,4.10
2017-10-25T13:33:18.471Z,3.70
2017-10-25T13:35:46.006Z,3.87
2017-10-25T13:38:13.536Z,5.03
2017-10-25T13:40:41.120Z,4.77
2017-10-25T13:43:08.617Z,4.07
2017-10-25T13:45:36.144Z,4.87
2017-10-25T13:48:03.633Z,3.90
2017-10-25T13:50:31.126Z,6.63
2017-10-25T13:52:58.631Z,4.27
2017-10-25T13:55:26.173Z,5.33
2017-10-25T13:57:53.840Z,4.30
2017-10-25T14:00:21.332Z,4.27
2017-10-25T14:02:48.822Z,6.30
2017-10-25T14:05:16.356Z,6.30
2017-10-25T14:07:43.839Z,5.20
2017-10-25T14:10:11.343Z,8.43
2017-10-25T14:12:38.884Z,6.97
2017-10-25T14:15:06.371Z,3.93
2017-10-25T14:17:33.891Z,4.73
2017-10-25T14:20:01.401Z,4.80
2017-10-25T14:22:28.892Z,4.03
2017-10-25T14:24:56.429Z,4.00
2017-10-25T14:27:35.813Z,4.60
2017-10-25T14:30:03.471Z,3.80
2017-10-25T14:32:30.956Z,4.83
2017-10-25T14:34:58.431Z,5.13
2017-10-25T14:37:25.956Z,4.70
2017-10-25T14:39:53.441Z,5.00
2017-10-25T14:42:20.924Z,5.00
2017-10-25T14:44:48.434Z,5.83
2017-10-25T14:47:15.927Z,8.20
2017-10-25T14:49:43.422Z,5.67
2017-10-25T14:52:10.961Z,5.50
2017-10-25T14:54:38.449Z,5.83
2017-10-25T14:57:05.936Z,6.07
2017-10-25T14:59:33.456Z,4.83
2017-10-25T15:02:01.023Z,5.60
2017-10-25T15:04:28.515Z,5.57
2017-10-25T15:06:56.060Z,5.50
2017-10-25T15:09:23.608Z,7.17
2017-10-25T15:11:51.160Z,6.87
2017-10-25T15:14:18.717Z,5.40
2017-10-25T15:16:46.213Z,6.23
2017-10-25T15:21:47.532Z,6.40
2017-10-25T15:24:15.040Z,9.30
2017-10-25T15:26:42.650Z,5.37
2017-10-25T15:29:10.221Z,4.93
2017-10-25T15:31:37.771Z,6.03
2017-10-25T15:34:05.262Z,5.70
2017-10-25T15:36:32.813Z,5.40
2017-10-25T15:39:00.353Z,6.10
2017-10-25T15:41:27.844Z,6.07
2017-10-25T15:43:55.332Z,6.43
2017-10-25T15:46:23.036Z,5.70
2017-10-25T15:48:50.610Z,4.77
2017-10-25T15:51:18.092Z,5.90
2017-10-25T15:53:45.619Z,5.27
2017-10-25T15:56:13.170Z,6.40
2017-10-25T15:58:40.653Z,6.30
2017-10-25T16:01:08.389Z,4.63
2017-10-25T16:03:35.880Z,5.23
2017-10-25T16:06:03.365Z,5.47
2017-10-25T16:08:30.867Z,4.63
2017-10-25T16:10:58.408Z,7.10
2017-10-25T16:13:25.899Z,5.00
2017-10-25T16:15:53.419Z,9.20
2017-10-25T16:18:21.001Z,8.07
2017-10-25T16:20:48.496Z,8.03
2017-10-25T16:23:16.014Z,7.63
2017-10-25T16:25:43.502Z,6.17
2017-10-25T16:28:11.024Z,14.27
2017-10-25T16:30:38.512Z,7.00
2017-10-25T16:33:05.993Z,7.23
2017-10-25T16:35:33.601Z,6.50
2017-10-25T16:38:01.156Z,6.73
2017-10-25T16:40:28.644Z,9.07
2017-10-25T16:42:56.168Z,8.40
2017-10-25T16:45:23.653Z,6.73
2017-10-25T16:47:51.135Z,6.50
2017-10-25T16:50:18.673Z,7.20
2017-10-25T16:52:46.159Z,7.43
2017-10-25T16:55:13.693Z,6.50
2017-10-25T16:57:41.183Z,7.77
2017-10-25T17:00:08.683Z,10.50
2017-10-25T17:02:36.216Z,6.37
2017-10-25T17:05:03.696Z,7.00
2017-10-25T17:07:31.180Z,6.60
2017-10-25T17:09:58.685Z,5.53
2017-10-25T17:12:26.179Z,7.23
2017-10-25T17:14:53.840Z,6.97
2017-10-25T17:17:21.323Z,6.43
2017-10-25T17:19:48.858Z,5.40
2017-10-25T17:22:16.415Z,6.13
2017-10-25T17:24:43.895Z,6.30
2017-10-25T17:27:11.376Z,5.77
2017-10-25T17:29:38.927Z,6.23
2017-10-25T17:32:06.408Z,7.20
2017-10-25T17:34:33.932Z,7.10
2017-10-25T17:37:01.464Z,6.27
2017-10-25T17:39:29.022Z,5.43
2017-10-25T17:41:56.536Z,6.00
2017-10-25T17:44:24.039Z,6.77
2017-10-25T17:46:51.535Z,7.20
2017-10-25T17:49:19.076Z,7.27
2017-10-25T17:51:46.570Z,6.50
2017-10-25T17:54:14.065Z,8.27
2017-10-25T17:56:41.621Z,6.90
2017-10-25T17:59:09.191Z,6.73
2017-10-25T18:01:36.675Z,5.70
2017-10-25T18:04:04.405Z,6.07
2017-10-25T18:06:31.891Z,6.77
2017-10-25T18:08:59.434Z,9.57
2017-10-25T18:11:26.936Z,6.80
2017-10-25T18:13:54.559Z,5.60
2017-10-25T18:16:22.104Z,7.83
2017-10-25T18:18:49.586Z,8.03
2017-10-25T18:21:17.111Z,12.73
2017-10-25T18:23:44.615Z,6.73
2017-10-25T18:26:12.100Z,6.37
2017-10-25T18:28:39.637Z,7.37
2017-10-25T18:31:07.123Z,6.70
2017-10-25T18:33:34.621Z,7.80
2017-10-25T18:36:02.177Z,7.77
2017-10-25T18:38:29.679Z,8.00
2017-10-25T18:40:57.393Z,8.23
2017-10-25T18:43:24.945Z,7.73
2017-10-25T18:45:52.440Z,8.53
2017-10-25T18:48:19.989Z,9.30
2017-10-25T18:50:47.527Z,8.70
2017-10-25T18:53:15.081Z,8.97
2017-10-25T18:55:42.747Z,8.90
2017-10-25T18:58:10.238Z,9.13
2017-10-25T19:00:37.732Z,9.00
2017-10-25T19:03:05.273Z,9.37
2017-10-25T19:05:32.781Z,9.87
2017-10-25T19:08:00.271Z,11.77
2017-10-25T19:10:27.791Z,10.30
2017-10-25T19:12:55.280Z,9.90
2017-10-25T19:15:22.763Z,9.70
2017-10-25T19:17:50.300Z,10.37
2017-10-25T19:20:17.787Z,12.20
2017-10-25T19:22:45.279Z,12.00
2017-10-25T19:25:12.796Z,12.27
2017-10-25T19:27:40.287Z,12.87
2017-10-25T19:30:07.776Z,13.27
2017-10-25T19:32:35.301Z,11.37
2017-10-25T19:35:02.796Z,11.60
2017-10-25T19:37:30.292Z,11.87
2017-10-25T19:39:57.829Z,12.63
2017-10-25T19:42:25.352Z,11.90
2017-10-25T19:44:52.848Z,12.87
2017-10-25T19:47:20.416Z,18.03
2017-10-25T19:49:47.925Z,17.57
2017-10-25T19:52:15.475Z,18.30
2017-10-25T19:54:42.967Z,11.43
2017-10-25T19:57:10.455Z,13.10
2017-10-25T19:59:38.008Z,14.20
2017-10-25T20:02:05.520Z,11.87
2017-10-25T20:04:33.079Z,12.13
2017-10-25T20:07:00.604Z,11.70
2017-10-25T20:09:28.096Z,10.40
2017-10-25T20:11:55.677Z,9.73
2017-10-25T20:14:23.213Z,9.63
2017-10-25T20:16:50.714Z,8.70
2017-10-25T20:19:18.231Z,8.17
2017-10-25T20:21:45.763Z,6.67
2017-10-25T20:24:13.264Z,8.03
2017-10-25T20:26:40.748Z,6.73
2017-10-25T20:29:08.293Z,8.60
2017-10-25T20:31:35.818Z,7.17
2017-10-25T20:34:03.296Z,6.13
2017-10-25T20:36:30.829Z,7.17
2017-10-25T20:38:58.329Z,7.13
2017-10-25T20:41:25.818Z,6.67
2017-10-25T20:43:53.351Z,9.90
2017-10-25T20:46:20.888Z,5.97
2017-10-25T20:48:48.375Z,5.27
2017-10-25T20:51:15.904Z,6.30
2017-10-25T20:53:43.450Z,6.00
2017-10-25T20:56:10.947Z,8.20
2017-10-25T20:58:38.489Z,6.13
2017-10-25T21:01:05.972Z,6.63
2017-10-25T21:03:33.455Z,4.67
2017-10-25T21:06:00.967Z,4.67
2017-10-25T21:08:28.490Z,5.50
2017-10-25T21:10:56.048Z,3.97
2017-10-25T21:13:23.598Z,4.03
2017-10-25T21:15:51.119Z,5.00
2017-10-25T21:18:18.646Z,4.87
2017-10-25T21:20:46.133Z,3.90
2017-10-25T21:23:13.642Z,4.93
2017-10-25T21:25:41.222Z,5.20
2017-10-25T21:28:08.735Z,4.87
2017-10-25T21:30:36.211Z,5.93
2017-10-25T21:33:03.790Z,8.23
2017-10-25T21:35:31.436Z,7.77
2017-10-25T21:37:58.937Z,6.47
2017-10-25T21:40:26.435Z,7.37
2017-10-25T21:42:54.092Z,4.90
2017-10-25T21:45:21.588Z,24.07
2017-10-25T21:47:49.079Z,11.60
2017-10-25T21:50:16.604Z,16.27
2017-10-25T21:52:44.112Z,11.60
2017-10-25T21:55:11.712Z,9.23
2017-10-25T21:57:39.257Z,9.27
2017-10-25T22:00:06.749Z,7.40
2017-10-25T22:02:34.233Z,9.13
2017-10-25T22:05:01.848Z,14.30
2017-10-25T22:07:29.355Z,9.30
2017-10-25T22:09:56.888Z,10.50
2017-10-25T22:12:24.372Z,8.53
2017-10-25T22:14:51.872Z,10.37
2017-10-25T22:17:19.419Z,13.73
2017-10-25T22:19:46.996Z,9.37
2017-10-25T22:22:14.492Z,25.83
2017-10-25T22:24:42.034Z,8.73
2017-10-25T22:27:09.521Z,8.77
2017-10-25T22:29:37.008Z,12.97
2017-10-25T22:32:04.546Z,10.53
2017-10-25T22:34:32.054Z,16.43
2017-10-25T22:36:59.545Z,18.60
2017-10-25T22:39:27.159Z,13.63
2017-10-25T22:41:54.655Z,28.53
2017-10-25T22:44:22.196Z,10.93
2017-10-25T22:46:49.757Z,8.07
2017-10-25T22:49:17.300Z,13.37
2017-10-25T22:51:44.858Z,20.73
2017-10-25T22:54:12.411Z,8.07
2017-10-25T22:56:39.894Z,7.10
2017-10-25T22:59:07.436Z,5.10
2017-10-25T23:01:34.932Z,5.23
2017-10-25T23:04:02.420Z,5.57
2017-10-25T23:06:30.112Z,6.07
2017-10-25T23:08:57.612Z,8.73
2017-10-25T23:11:25.096Z,9.73
2017-10-25T23:13:52.693Z,6.03
2017-10-25T23:16:20.249Z,6.40
2017-10-25T23:18:47.728Z,5.57
2017-10-25T23:21:15.355Z,8.07
2017-10-25T23:23:42.848Z,7.13
2017-10-25T23:26:10.339Z,5.47
2017-10-25T23:28:37.940Z,9.60
2017-10-25T23:31:05.529Z,6.73
2017-10-25T23:33:33.061Z,5.90
2017-10-25T23:36:00.565Z,6.83
2017-10-25T23:38:28.139Z,9.67
2017-10-25T23:40:55.663Z,6.97
2017-10-25T23:43:23.153Z,6.37
2017-10-25T23:45:50.644Z,11.73
2017-10-25T23:48:18.156Z,5.77
2017-10-25T23:50:45.650Z,9.00
2017-10-25T23:53:13.176Z,6.97
2017-10-25T23:55:40.690Z,10.50
2017-10-25T23:58:08.175Z,8.87
